Time;durP1;ratioP1;P1;durP2;ratioP2;P2;SDS_P1;SDS_P2;PMS_P1;PMS_P2;Temp;Humidity;BMP_temperature;BMP_pressure;BME280_temperature;BME280_humidity;BME280_pressure;Samples;Min_cycle;Max_cycle;Signal;HPM_P1;HPM_P2
2022/06/07 00:01:11;;;;;;;15.23;6.05;;;12.20;95.70;;;;;;6250146;22;20061;-76
2022/06/07 00:03:37;;;;;;;12.33;5.60;;;12.20;95.80;;;;;;6225191;22;20022;-74
2022/06/07 00:06:02;;;;;;;16.27;5.93;;;12.20;96.00;;;;;;6249921;22;20569;-77
2022/06/07 00:08:31;;;;;;;12.70;5.18;;;12.20;95.50;;;;;;6224848;22;20335;-75
2022/06/07 00:10:57;;;;;;;12.82;4.80;;;12.20;95.00;;;;;;6250159;22;20355;-75
2022/06/07 00:13:23;;;;;;;16.75;5.70;;;12.20;95.20;;;;;;6224766;22;20512;-75
2022/06/07 00:15:48;;;;;;;15.57;5.40;;;12.20;95.40;;;;;;6224822;22;20008;-75
2022/06/07 00:18:14;;;;;;;13.67;5.53;;;12.20;95.20;;;;;;6250862;22;20704;-75
2022/06/07 00:20:42;;;;;;;24.20;6.20;;;12.20;95.40;;;;;;6249999;22;20321;-75
2022/06/07 00:23:11;;;;;;;16.08;6.10;;;12.30;95.80;;;;;;6250373;22;20314;-76
2022/06/07 00:25:37;;;;;;;13.50;5.70;;;12.20;95.40;;;;;;6224452;22;20023;-73
2022/06/07 00:28:04;;;;;;;20.17;5.93;;;12.20;95.30;;;;;;6225386;22;20050;-75
2022/06/07 00:30:31;;;;;;;14.10;5.45;;;12.20;95.60;;;;;;6277130;22;20008;-75
2022/06/07 00:32:57;;;;;;;17.77;6.35;;;12.10;95.80;;;;;;6224741;22;20061;-75
2022/06/07 00:35:23;;;;;;;13.82;5.45;;;12.10;95.80;;;;;;6250349;22;20057;-77
2022/06/07 00:37:49;;;;;;;12.25;6.03;;;12.10;95.60;;;;;;6226970;22;20129;-74
2022/06/07 00:40:15;;;;;;;17.75;6.43;;;12.20;95.60;;;;;;6227136;22;20023;-77
2022/06/07 00:42:42;;;;;;;16.73;6.15;;;12.20;95.80;;;;;;6226276;22;20014;-76
2022/06/07 00:45:18;;;;;;;;;;;12.20;95.80;;;;;;6252524;22;20016;-75
2022/06/07 00:47:44;;;;;;;16.63;6.72;;;12.20;95.50;;;;;;6252664;22;19918;-76
2022/06/07 00:50:37;;;;;;;17.77;6.63;;;12.20;96.00;;;;;;6251743;22;20099;-75
2022/06/07 00:53:04;;;;;;;16.23;6.05;;;12.20;95.70;;;;;;6226630;22;20426;-76
2022/06/07 00:55:30;;;;;;;20.08;6.40;;;12.20;95.40;;;;;;6252050;22;20015;-77
2022/06/07 00:57:56;;;;;;;18.92;6.50;;;12.20;95.30;;;;;;6226634;22;20031;-75
2022/06/07 01:00:24;;;;;;;19.73;7.15;;;12.20;95.50;;;;;;6226721;22;20011;-77
2022/06/07 01:02:51;;;;;;;17.30;6.22;;;12.20;95.40;;;;;;6226668;22;20069;-75
2022/06/07 01:05:17;;;;;;;14.13;5.65;;;12.30;95.60;;;;;;6250449;22;20430;-74
2022/06/07 01:10:45;;;;;;;20.10;6.28;;;12.30;95.00;;;;;;6251064;22;20078;-76
2022/06/07 01:13:13;;;;;;;17.77;6.07;;;12.30;95.20;;;;;;6226150;22;20135;-74
2022/06/07 01:15:39;;;;;;;20.17;5.78;;;12.30;95.30;;;;;;6226419;22;20007;-76
2022/06/07 01:18:05;;;;;;;13.82;5.70;;;12.40;95.50;;;;;;6251288;22;20380;-78
2022/06/07 01:20:31;;;;;;;19.92;6.15;;;12.30;94.90;;;;;;6252097;22;20051;-76
2022/06/07 01:22:57;;;;;;;20.17;6.60;;;12.30;95.40;;;;;;6251198;22;20004;-76
2022/06/07 01:25:23;;;;;;;16.42;5.97;;;12.30;95.10;;;;;;6251698;22;20150;-76
2022/06/07 01:27:48;;;;;;;23.80;7.28;;;12.30;95.70;;;;;;6251754;22;20023;-74
2022/06/07 01:30:14;;;;;;;18.17;6.85;;;12.30;95.70;;;;;;6251547;22;20008;-75
2022/06/07 01:32:40;;;;;;;18.98;7.10;;;12.20;95.90;;;;;;6226059;22;20011;-75
2022/06/07 01:35:07;;;;;;;19.50;7.57;;;12.30;96.10;;;;;;6250970;22;20019;-76
2022/06/07 01:37:33;;;;;;;20.05;6.45;;;12.10;96.00;;;;;;6251490;22;20365;-75
2022/06/07 01:42:43;;;;;;;19.00;6.30;;;12.00;96.20;;;;;;6251622;22;20018;-76
2022/06/07 01:45:09;;;;;;;17.33;6.03;;;11.90;96.50;;;;;;6251422;22;20421;-77
2022/06/07 01:47:35;;;;;;;17.98;6.63;;;11.90;96.70;;;;;;6225369;22;20242;-75
2022/06/07 01:50:02;;;;;;;20.15;6.97;;;11.80;96.90;;;;;;6250592;22;20303;-74
2022/06/07 01:52:31;;;;;;;27.42;7.55;;;11.80;97.00;;;;;;6226338;22;20019;-75
2022/06/07 01:54:57;;;;;;;17.58;6.38;;;11.80;97.20;;;;;;6251405;22;20018;-76
2022/06/07 01:57:24;;;;;;;23.58;6.60;;;11.80;96.80;;;;;;6278401;22;20011;-74
2022/06/07 01:59:50;;;;;;;16.27;5.82;;;11.80;96.60;;;;;;6200931;22;20043;-75
2022/06/07 02:02:17;;;;;;;17.10;5.35;;;11.70;96.10;;;;;;6250940;22;20015;-78
2022/06/07 02:04:43;;;;;;;17.33;4.95;;;11.70;96.10;;;;;;6250973;22;20065;-75
2022/06/07 02:07:09;;;;;;;;;;;11.70;95.60;;;;;;6251773;22;20004;-74
2022/06/07 02:09:35;;;;;;;20.05;5.32;;;11.60;95.90;;;;;;6225520;22;19911;-77
2022/06/07 02:12:02;;;;;;;21.92;5.85;;;11.60;96.50;;;;;;6251319;22;20019;-75
2022/06/07 02:14:29;;;;;;;20.52;6.22;;;11.60;96.20;;;;;;6250658;22;20019;-76
2022/06/07 02:16:55;;;;;;;16.38;5.95;;;11.50;95.90;;;;;;6251000;22;20033;-76
2022/06/07 02:19:21;;;;;;;19.63;6.55;;;11.70;96.50;;;;;;6250907;22;20019;-75
2022/06/07 02:21:46;;;;;;;17.05;5.75;;;11.50;96.70;;;;;;6225777;22;20008;-75
2022/06/07 02:24:12;;;;;;;19.93;5.87;;;11.50;96.50;;;;;;6251042;22;20020;-74
2022/06/07 02:26:50;;;;;;;20.67;6.18;;;11.70;96.60;;;;;;6225880;22;20345;-75
2022/06/07 02:29:32;;;;;;;20.90;5.80;;;11.50;96.30;;;;;;6250882;22;20041;-75
2022/06/07 02:32:01;;;;;;;25.00;6.88;;;11.50;96.10;;;;;;6251088;22;20047;-75
2022/06/07 02:34:28;;;;;;;21.02;6.15;;;11.60;96.50;;;;;;6250453;22;20016;-77
2022/06/07 02:36:57;;;;;;;17.92;6.35;;;11.50;96.30;;;;;;6251062;22;20057;-76
2022/06/07 02:39:24;;;;;;;23.73;6.55;;;11.60;96.60;;;;;;6225441;22;20016;-77
2022/06/07 02:41:51;;;;;;;25.27;6.18;;;11.60;96.50;;;;;;6225870;22;20379;-75
2022/06/07 02:44:16;;;;;;;18.95;6.47;;;11.50;96.60;;;;;;6250821;22;20317;-75
2022/06/07 02:46:42;;;;;;;28.60;7.43;;;11.60;96.50;;;;;;6225386;22;20011;-76
2022/06/07 02:49:08;;;;;;;12.48;5.75;;;11.60;96.30;;;;;;6225523;22;20016;-77
2022/06/07 02:51:34;;;;;;;19.40;6.30;;;11.60;96.30;;;;;;6250804;22;20043;-77
2022/06/07 02:54:00;;;;;;;13.73;5.80;;;11.60;96.50;;;;;;6250690;22;20095;-75
2022/06/07 02:56:25;;;;;;;15.63;5.60;;;11.60;96.50;;;;;;6250832;22;20016;-77
2022/06/07 02:58:51;;;;;;;20.87;5.27;;;11.60;96.30;;;;;;6250656;22;20278;-75
2022/06/07 03:01:17;;;;;;;15.93;4.93;;;11.50;95.90;;;;;;6250672;22;20251;-75
2022/06/07 03:03:42;;;;;;;20.35;5.40;;;11.50;96.20;;;;;;6250593;22;20306;-74
2022/06/07 03:06:08;;;;;;;23.13;5.30;;;11.50;96.30;;;;;;6225090;22;20019;-76
2022/06/07 03:08:34;;;;;;;16.70;5.43;;;11.60;96.40;;;;;;6249967;22;20007;-77
2022/06/07 03:11:00;;;;;;;21.70;5.80;;;11.50;95.90;;;;;;6250669;22;20011;-75
2022/06/07 03:13:26;;;;;;;18.27;5.25;;;11.40;96.30;;;;;;6224983;22;20052;-74
2022/06/07 03:15:52;;;;;;;19.58;6.10;;;11.50;96.70;;;;;;6225121;22;20058;-76
2022/06/07 03:18:19;;;;;;;17.75;5.50;;;11.40;96.70;;;;;;6250240;22;20012;-74
2022/06/07 03:20:49;;;;;;;21.40;6.63;;;11.40;97.00;;;;;;6250698;22;20318;-74
2022/06/07 03:23:15;;;;;;;14.80;4.78;;;11.40;96.90;;;;;;6225182;22;20023;-76
2022/06/07 03:25:41;;;;;;;22.42;6.43;;;11.40;96.50;;;;;;6250293;22;20043;-77
2022/06/07 03:28:07;;;;;;;21.10;5.10;;;11.50;96.40;;;;;;6225111;22;20015;-76
2022/06/07 03:30:34;;;;;;;22.83;5.60;;;11.40;96.10;;;;;;6250508;22;20007;-74
2022/06/07 03:33:00;;;;;;;;;;;11.50;96.20;;;;;;6250892;22;20483;-75
2022/06/07 03:35:26;;;;;;;21.92;6.18;;;11.50;96.50;;;;;;6249818;22;19960;-76
2022/06/07 03:37:52;;;;;;;27.83;6.38;;;11.50;97.10;;;;;;6224285;22;20098;-74
2022/06/07 03:40:43;;;;;;;21.17;6.50;;;11.40;97.40;;;;;;6250362;22;20012;-75
2022/06/07 03:43:05;;;;;;;22.25;6.55;;;11.40;97.60;;;;;;6277267;22;20019;-75
2022/06/07 03:45:31;;;;;;;26.42;7.47;;;11.40;97.80;;;;;;6224890;22;20399;-76
2022/06/07 03:47:57;;;;;;;27.73;6.80;;;11.40;98.00;;;;;;6250327;22;20062;-75
2022/06/07 03:50:23;;;;;;;28.10;7.95;;;11.50;98.30;;;;;;6249298;22;20039;-76
2022/06/07 03:52:49;;;;;;;19.05;7.18;;;11.40;98.60;;;;;;6250329;22;20015;-74
2022/06/07 03:55:15;;;;;;;21.45;6.85;;;11.40;98.80;;;;;;6250302;22;20497;-75
2022/06/07 03:57:40;;;;;;;18.55;6.60;;;11.40;98.90;;;;;;6250131;22;20011;-76
2022/06/07 04:00:07;;;;;;;27.83;6.32;;;11.40;99.10;;;;;;6224851;22;20318;-76
2022/06/07 04:02:33;;;;;;;;;;;11.50;99.20;;;;;;6250223;22;20012;-74
2022/06/07 04:04:59;;;;;;;20.42;7.20;;;11.50;99.60;;;;;;6250043;22;19989;-77
2022/06/07 04:10:09;;;;;;;31.33;7.82;;;11.50;99.40;;;;;;6249542;22;20012;-74
2022/06/07 04:12:35;;;;;;;24.13;7.13;;;11.50;99.50;;;;;;6224717;22;20077;-77
2022/06/07 04:15:01;;;;;;;31.80;7.50;;;11.50;99.60;;;;;;6249894;22;20015;-75
2022/06/07 04:17:26;;;;;;;21.25;7.43;;;11.50;99.70;;;;;;6224679;22;20008;-75
2022/06/07 04:19:52;;;;;;;18.70;6.07;;;11.50;99.80;;;;;;6224621;22;20457;-74
2022/06/07 04:22:18;;;;;;;20.58;5.60;;;11.50;99.90;;;;;;6250051;22;20016;-74
2022/06/07 04:24:43;;;;;;;14.88;5.00;;;11.50;99.80;;;;;;6249779;22;20090;-73
2022/06/07 04:27:09;;;;;;;12.35;4.45;;;11.60;99.80;;;;;;6224816;22;20016;-74
2022/06/07 04:29:35;;;;;;;15.73;4.27;;;11.60;99.90;;;;;;6224788;22;20023;-74
2022/06/07 04:32:00;;;;;;;11.55;4.00;;;11.50;99.90;;;;;;6224431;22;20303;-75
2022/06/07 04:34:27;;;;;;;18.30;4.55;;;11.60;99.90;;;;;;6250114;22;20063;-75
2022/06/07 04:36:53;;;;;;;21.35;5.70;;;11.60;99.90;;;;;;6224933;22;20419;-76
2022/06/07 04:39:19;;;;;;;17.30;5.47;;;11.70;99.90;;;;;;6224723;22;20015;-74
2022/06/07 04:41:44;;;;;;;17.75;4.93;;;11.50;99.90;;;;;;6249812;22;20460;-76
2022/06/07 04:44:10;;;;;;;14.60;4.38;;;11.50;99.90;;;;;;6249342;22;20078;-75
2022/06/07 04:46:36;;;;;;;16.73;3.85;;;11.50;99.90;;;;;;6249878;22;20012;-74
2022/06/07 04:49:02;;;;;;;10.70;2.67;;;11.50;99.90;;;;;;6224239;22;20371;-77
2022/06/07 04:51:34;;;;;;;15.38;2.80;;;11.80;99.60;;;;;;6224655;22;20008;-74
2022/06/07 04:54:01;;;;;;;15.73;2.63;;;11.40;99.70;;;;;;6249764;22;20008;-73
2022/06/07 04:56:29;;;;;;;13.13;2.42;;;11.40;99.60;;;;;;6249142;22;20012;-76
2022/06/07 04:58:57;;;;;;;13.10;2.45;;;11.20;99.60;;;;;;6249841;22;20011;-77
2022/06/07 05:01:32;;;;;;;13.30;2.67;;;11.30;99.80;;;;;;6249796;22;20012;-75
2022/06/07 05:03:58;;;;;;;15.52;3.10;;;11.30;99.90;;;;;;6250314;22;20012;-74
2022/06/07 05:06:28;;;;;;;13.65;2.60;;;11.30;99.90;;;;;;6249620;22;20437;-75
2022/06/07 05:08:59;;;;;;;12.02;3.20;;;11.30;99.90;;;;;;6249489;22;20015;-74
2022/06/07 05:11:26;;;;;;;9.02;2.60;;;11.30;99.90;;;;;;6249979;22;20038;-74
2022/06/07 05:13:56;;;;;;;12.23;2.20;;;11.30;99.90;;;;;;6224405;22;20016;-75
2022/06/07 05:16:23;;;;;;;11.88;2.72;;;11.30;99.90;;;;;;6276719;22;20323;-75
2022/06/07 05:18:50;;;;;;;19.98;3.20;;;11.40;99.90;;;;;;6224951;22;20034;-74
2022/06/07 05:21:16;;;;;;;12.02;2.72;;;11.40;99.90;;;;;;6224803;22;20012;-75
2022/06/07 05:23:43;;;;;;;14.68;3.05;;;11.40;99.90;;;;;;6251548;22;20070;-76
2022/06/07 05:26:20;;;;;;;16.20;2.80;;;11.50;99.90;;;;;;6251572;22;20012;-75
2022/06/07 05:28:46;;;;;;;14.60;3.35;;;11.50;99.90;;;;;;6251612;22;20015;-75
2022/06/07 05:31:12;;;;;;;13.45;3.20;;;11.50;99.90;;;;;;6251796;22;20438;-76
2022/06/07 05:33:38;;;;;;;14.32;3.10;;;11.50;99.90;;;;;;6251581;22;20011;-76
2022/06/07 05:36:04;;;;;;;18.88;3.53;;;11.50;99.90;;;;;;6225438;22;20093;-73
2022/06/07 05:38:30;;;;;;;16.42;3.10;;;11.60;99.90;;;;;;6251573;22;20039;-76
2022/06/07 05:40:56;;;;;;;16.27;2.85;;;11.60;99.90;;;;;;6251382;22;20427;-75
2022/06/07 05:43:21;;;;;;;15.93;3.20;;;11.60;99.80;;;;;;6251086;22;20020;-74
2022/06/07 05:45:49;;;;;;;17.02;3.25;;;11.70;99.50;;;;;;6278183;22;20297;-74
2022/06/07 05:48:15;;;;;;;11.35;2.90;;;11.70;99.50;;;;;;6226232;22;20016;-74
2022/06/07 05:50:43;;;;;;;17.52;3.10;;;11.70;99.40;;;;;;6251421;22;20022;-76
2022/06/07 05:53:10;;;;;;;11.15;2.13;;;11.80;99.60;;;;;;6251177;22;20419;-76
2022/06/07 05:55:38;;;;;;;13.00;2.55;;;11.90;98.90;;;;;;6251162;22;20095;-73
2022/06/07 05:58:04;;;;;;;13.38;3.80;;;11.90;98.80;;;;;;6251190;22;20014;-74
2022/06/07 06:00:30;;;;;;;17.40;2.83;;;12.00;98.80;;;;;;6225144;22;20050;-76
2022/06/07 06:02:56;;;;;;;11.68;3.25;;;12.10;99.20;;;;;;6201060;22;20038;-76
2022/06/07 06:05:22;;;;;;;19.50;2.47;;;12.10;98.80;;;;;;6225918;22;20015;-76
2022/06/07 06:10:42;;;;;;;24.23;3.35;;;12.10;98.90;;;;;;6250929;22;20023;-76
2022/06/07 06:13:09;;;;;;;19.52;3.38;;;12.20;98.40;;;;;;6201628;22;20114;-75
2022/06/07 06:19:04;;;;;;;17.83;2.60;;;12.20;98.20;;;;;;6250893;22;20114;-72
2022/06/07 06:21:36;;;;;;;14.10;2.72;;;12.20;98.00;;;;;;6251111;22;20314;-73
2022/06/07 06:24:02;;;;;;;19.70;3.20;;;12.20;98.00;;;;;;6250864;22;20016;-76
2022/06/07 06:26:28;;;;;;;19.30;3.42;;;12.30;98.10;;;;;;6225341;22;20061;-76
2022/06/07 06:28:54;;;;;;;18.48;3.50;;;12.30;98.10;;;;;;6250679;22;20434;-75
2022/06/07 06:31:20;;;;;;;;;;;12.30;98.40;;;;;;6250598;22;20445;-75
2022/06/07 06:33:48;;;;;;;16.55;2.88;;;12.30;97.60;;;;;;6224779;22;19911;-81
2022/06/07 06:36:16;;;;;;;13.05;2.40;;;12.40;98.50;;;;;;6225098;22;20039;-80
2022/06/07 06:38:45;;;;;;;10.82;1.77;;;12.40;97.80;;;;;;6253091;22;20043;-81
2022/06/07 06:41:14;;;;;;;15.35;2.72;;;12.50;97.40;;;;;;6253891;22;20095;-82
2022/06/07 06:43:40;;;;;;;12.98;1.65;;;12.50;96.00;;;;;;6225487;22;20039;-78
2022/06/07 06:46:15;;;;;;;9.45;1.50;;;12.50;97.30;;;;;;6249229;22;20035;-79
2022/06/07 06:48:43;;;;;;;13.13;1.75;;;12.50;96.20;;;;;;6250664;22;20464;-79
2022/06/07 06:51:10;;;;;;;14.93;2.42;;;12.40;96.60;;;;;;6225569;22;20007;-80
2022/06/07 06:53:41;;;;;;;9.80;1.90;;;12.40;96.30;;;;;;6225442;22;20010;-79
2022/06/07 06:56:14;;;;;;;9.10;2.38;;;12.40;96.90;;;;;;6250237;22;20438;-81
2022/06/07 06:58:41;;;;;;;10.35;2.38;;;12.30;96.60;;;;;;6250259;22;20012;-79
2022/06/07 07:01:58;;;;;;;9.80;2.60;;;12.30;97.10;;;;;;6250952;22;20039;-83
2022/06/07 07:04:29;;;;;;;11.90;1.80;;;12.30;96.20;;;;;;6250297;22;20008;-81
2022/06/07 07:06:55;;;;;;;9.07;1.70;;;12.30;95.90;;;;;;6225308;22;20062;-81
2022/06/07 07:09:24;;;;;;;11.27;1.90;;;12.30;96.20;;;;;;6219139;23;20012;-75
2022/06/07 07:11:54;;;;;;;12.82;1.95;;;12.40;95.30;;;;;;6245227;23;20047;-73
2022/06/07 07:14:19;;;;;;;7.80;1.90;;;12.40;96.50;;;;;;6245085;23;20000;-73
2022/06/07 07:16:55;;;;;;;8.77;1.95;;;12.50;96.90;;;;;;6244806;22;20105;-77
2022/06/07 07:19:22;;;;;;;9.73;1.60;;;12.60;95.00;;;;;;6245837;23;20022;-78
2022/06/07 07:21:50;;;;;;;9.88;1.50;;;12.70;95.80;;;;;;6245046;23;20410;-79
2022/06/07 07:24:23;;;;;;;10.52;1.63;;;12.80;96.60;;;;;;6217443;23;20012;-76
2022/06/07 07:26:50;;;;;;;8.13;2.05;;;12.90;94.70;;;;;;6243255;23;20011;-79
2022/06/07 07:29:29;;;;;;;12.63;2.20;;;13.00;95.80;;;;;;6211651;23;20083;-82
2022/06/07 07:31:55;;;;;;;11.50;2.15;;;13.10;94.80;;;;;;6159232;23;20095;-79
2022/06/07 07:34:28;;;;;;;12.43;2.38;;;13.10;95.10;;;;;;6162462;23;20392;-77
2022/06/07 07:37:10;;;;;;;12.20;2.70;;;13.30;94.90;;;;;;6207076;23;20086;-77
2022/06/07 07:39:56;;;;;;;14.70;2.90;;;13.50;95.90;;;;;;6163647;23;20016;-78
2022/06/07 07:42:32;;;;;;;11.80;2.60;;;13.50;96.30;;;;;;6162929;23;20098;-77
2022/06/07 07:45:17;;;;;;;9.77;2.20;;;13.70;94.60;;;;;;6137961;23;20008;-79
2022/06/07 07:48:02;;;;;;;;;;;;;;;;;;;;;
2022/06/07 07:51:39;;;;;;;11.63;2.33;;;13.90;95.40;;;;;;6163981;23;20081;-80
2022/06/07 07:54:49;;;;;;;18.60;2.60;;;14.00;93.90;;;;;;6079061;23;20006;-80
2022/06/07 07:57:15;;;;;;;;;;;14.00;94.00;;;;;;6160206;23;20040;-83
2022/06/07 07:59:41;;;;;;;11.07;2.00;;;14.10;93.00;;;;;;6172303;23;19907;-76
2022/06/07 08:02:14;;;;;;;11.95;1.90;;;14.10;94.20;;;;;;6243405;23;20019;-75
2022/06/07 08:05:05;;;;;;;13.85;2.97;;;14.10;94.40;;;;;;6243706;22;20010;-77
2022/06/07 08:08:04;;;;;;;12.05;2.28;;;14.10;92.90;;;;;;6243278;23;20019;-78
2022/06/07 08:10:54;;;;;;;14.50;2.78;;;14.00;93.30;;;;;;6218400;23;20323;-81
2022/06/07 08:13:20;;;;;;;19.67;2.60;;;13.90;92.60;;;;;;6244613;23;20012;-79
2022/06/07 08:16:04;;;;;;;19.98;2.78;;;13.90;94.20;;;;;;6219121;23;20066;-77
2022/06/07 08:22:56;;;;;;;;;;;;;;;;;;;;;
2022/06/07 08:26:48;;;;;;;;;;;;;;;;;;;;;
2022/06/07 08:29:27;;;;;;;16.73;2.50;;;13.30;95.10;;;;;;6136670;22;20016;-78
2022/06/07 08:40:15;;;;;;;16.13;2.67;;;13.10;96.30;;;;;;6242339;22;20058;-82
2022/06/07 08:43:17;;;;;;;11.02;2.60;;;13.00;96.10;;;;;;6008601;23;20052;-76
2022/06/07 08:45:46;;;;;;;15.75;2.25;;;13.30;96.50;;;;;;5979598;23;20036;-73
2022/06/07 09:52:55;;;;;;;10.02;1.88;;;14.50;92.30;;;;;;6096481;23;20073;-79
2022/06/07 09:55:27;;;;;;;14.48;2.47;;;14.60;91.70;;;;;;6079576;23;20022;-77
2022/06/07 09:58:48;;;;;;;12.20;2.63;;;14.70;92.30;;;;;;6071996;23;20098;-79
2022/06/07 10:02:39;;;;;;;13.00;2.60;;;14.80;91.90;;;;;;6095771;23;20022;-78
2022/06/07 10:08:47;;;;;;;14.48;2.25;;;14.80;91.20;;;;;;6070974;23;20093;-77
2022/06/07 10:11:38;;;;;;;5.07;1.70;;;14.80;90.50;;;;;;6152775;23;20016;-79
2022/06/07 10:14:19;;;;;;;10.75;2.60;;;15.00;89.90;;;;;;6160794;23;20348;-77
2022/06/07 10:17:00;;;;;;;7.63;1.90;;;15.20;87.80;;;;;;6160540;23;20013;-78
2022/06/07 10:19:32;;;;;;;6.90;1.60;;;15.40;88.10;;;;;;6159698;23;20051;-76
2022/06/07 10:22:43;;;;;;;5.07;1.55;;;15.50;88.70;;;;;;6160488;23;20013;-72
2022/06/07 10:25:29;;;;;;;7.03;1.80;;;15.50;88.80;;;;;;6186492;23;20013;-72
2022/06/07 10:28:12;;;;;;;10.57;1.70;;;15.50;87.70;;;;;;6185625;23;20016;-71
2022/06/07 10:30:50;;;;;;;7.82;1.88;;;15.60;87.20;;;;;;6160905;23;20017;-73
2022/06/07 10:33:43;;;;;;;7.85;1.52;;;15.60;86.80;;;;;;6185602;23;20062;-72
2022/06/07 10:36:27;;;;;;;5.40;1.80;;;15.70;87.40;;;;;;6160587;23;20075;-72
2022/06/07 10:39:04;;;;;;;5.88;1.90;;;15.70;87.00;;;;;;6160818;23;20119;-72
2022/06/07 10:41:42;;;;;;;8.32;1.60;;;15.80;87.20;;;;;;6185420;23;20028;-71
2022/06/07 10:44:34;;;;;;;9.60;1.90;;;15.80;85.70;;;;;;6160646;23;20499;-81
2022/06/07 10:47:22;;;;;;;4.20;1.30;;;15.70;86.40;;;;;;6160437;23;20067;-71
2022/06/07 10:49:58;;;;;;;3.92;1.60;;;15.90;88.00;;;;;;6160591;23;20017;-71
2022/06/07 10:53:05;;;;;;;7.15;1.80;;;16.20;86.20;;;;;;6135601;23;20017;-70
2022/06/07 10:55:45;;;;;;;7.97;1.63;;;16.40;87.00;;;;;;6159733;23;20017;-72
2022/06/07 10:58:29;;;;;;;9.57;1.35;;;16.70;83.50;;;;;;6160927;23;20020;-71
2022/06/07 11:01:22;;;;;;;5.97;1.60;;;16.70;83.20;;;;;;6185464;23;20076;-70
2022/06/07 11:04:10;;;;;;;6.60;1.40;;;16.70;83.20;;;;;;6160619;23;20013;-71
2022/06/07 11:09:43;;;;;;;6.43;1.50;;;16.70;81.50;;;;;;6159630;23;20024;-72
2022/06/07 11:12:19;;;;;;;3.60;1.00;;;16.80;82.60;;;;;;6160180;23;20554;-71
2022/06/07 11:15:08;;;;;;;7.50;1.50;;;17.00;86.20;;;;;;6159915;23;20024;-71
2022/06/07 11:17:42;;;;;;;8.20;1.65;;;17.00;81.60;;;;;;6186615;23;20040;-72
2022/06/07 11:20:19;;;;;;;10.68;1.70;;;16.90;81.80;;;;;;6184673;23;20055;-72
2022/06/07 11:23:09;;;;;;;6.63;1.30;;;16.90;80.90;;;;;;6135620;23;20123;-72
2022/06/07 11:25:59;;;;;;;11.45;1.50;;;16.90;81.50;;;;;;6159809;23;20035;-72
2022/06/07 11:28:31;;;;;;;5.90;1.30;;;16.90;81.50;;;;;;6135675;23;20113;-72
2022/06/07 11:31:25;;;;;;;9.73;1.60;;;17.00;84.10;;;;;;6186140;23;20009;-71
2022/06/07 11:33:51;;;;;;;8.57;1.60;;;16.80;81.10;;;;;;6159240;23;20012;-72
2022/06/07 11:36:20;;;;;;;9.20;2.08;;;16.60;83.20;;;;;;6159387;23;20055;-72
2022/06/07 11:39:41;;;;;;;13.05;1.70;;;16.60;82.50;;;;;;6209680;23;20519;-72
2022/06/07 11:42:10;;;;;;;10.25;1.55;;;16.60;81.60;;;;;;6132974;23;20017;-72
2022/06/07 11:44:49;;;;;;;7.07;1.35;;;16.60;83.90;;;;;;6159506;23;20072;-72
2022/06/07 11:47:15;;;;;;;5.00;1.83;;;16.90;82.10;;;;;;6159144;23;20063;-73
2022/06/07 11:49:54;;;;;;;4.80;1.17;;;17.00;80.50;;;;;;6159782;23;20010;-72
2022/06/07 11:52:22;;;;;;;4.93;1.27;;;16.90;77.80;;;;;;6159869;23;20016;-72
2022/06/07 11:55:25;;;;;;;4.43;1.23;;;17.00;80.50;;;;;;6159967;23;20047;-72
2022/06/07 11:57:56;;;;;;;8.40;1.88;;;17.00;79.20;;;;;;6135307;23;20013;-72
2022/06/07 12:01:16;;;;;;;6.25;1.33;;;17.10;80.50;;;;;;6159482;23;20009;-73
2022/06/07 12:04:38;;;;;;;5.03;1.60;;;17.30;77.70;;;;;;6084913;23;20009;-71
2022/06/07 12:14:43;;;;;;;10.30;1.67;;;17.70;77.40;;;;;;5956594;24;20024;-73
2022/06/07 12:17:29;;;;;;;8.25;1.55;;;17.60;79.60;;;;;;5982945;23;20068;-75
2022/06/07 12:20:04;;;;;;;8.18;1.88;;;17.50;78.20;;;;;;5993097;23;20047;-72
2022/06/07 12:22:41;;;;;;;10.15;1.77;;;17.50;78.20;;;;;;6013457;23;20023;-72
2022/06/07 12:25:24;;;;;;;13.50;2.67;;;17.30;79.20;;;;;;6075627;23;20440;-76
2022/06/07 12:27:58;;;;;;;7.05;1.63;;;17.30;79.40;;;;;;6160030;23;20013;-78
2022/06/07 12:31:02;;;;;;;7.18;1.67;;;17.40;79.00;;;;;;6160995;23;20059;-79
2022/06/07 12:34:05;;;;;;;;;;;;;;;;;;;;;
2022/06/07 19:45:55;;;;;;;11.55;2.55;;;14.00;91.10;;;;;;6216284;22;20023;-74
2022/06/07 19:55:53;;;;;;;9.20;2.97;;;13.70;91.70;;;;;;6183798;23;20020;-83
2022/06/07 19:58:40;;;;;;;15.45;3.80;;;13.60;91.60;;;;;;6183468;23;20051;-75
2022/06/07 20:01:38;;;;;;;11.73;4.03;;;13.50;91.40;;;;;;6136710;23;20332;-75
2022/06/07 20:04:28;;;;;;;11.55;3.78;;;13.40;91.50;;;;;;6137841;23;20020;-76
2022/06/07 20:07:01;;;;;;;10.75;4.22;;;13.40;92.10;;;;;;6157148;23;20124;-76
2022/06/07 20:09:44;;;;;;;19.13;7.13;;;13.30;91.80;;;;;;6132951;23;20048;-74
2022/06/07 20:12:10;;;;;;;12.80;4.88;;;13.20;92.00;;;;;;6146837;23;20032;-79
2022/06/07 20:14:45;;;;;;;10.95;4.45;;;13.10;92.00;;;;;;6252262;23;20012;-78
2022/06/07 20:17:14;;;;;;;13.57;7.28;;;13.10;92.30;;;;;;6251797;22;20091;-78
2022/06/07 20:20:16;;;;;;;32.33;13.35;;;13.00;92.30;;;;;;6245086;23;20500;-83
2022/06/07 20:22:42;;;;;;;22.60;5.60;;;12.90;93.00;;;;;;6244826;23;20316;-73
2022/06/07 20:25:20;;;;;;;15.20;6.60;;;12.90;92.90;;;;;;6219499;23;20082;-84
2022/06/07 20:27:50;;;;;;;109.53;27.73;;;12.80;93.50;;;;;;6217684;23;20443;-78
2022/06/07 20:30:25;;;;;;;88.68;21.75;;;12.80;93.10;;;;;;6243946;23;20014;-78
2022/06/07 20:44:17;;;;;;;12.13;5.22;;;12.60;94.50;;;;;;6008230;23;20063;-75
2022/06/07 20:46:43;;;;;;;10.00;4.30;;;12.50;94.20;;;;;;6046684;23;20014;-79
2022/06/07 20:49:09;;;;;;;16.00;4.72;;;12.50;94.20;;;;;;6098994;23;20018;-76
2022/06/07 20:51:35;;;;;;;16.55;4.38;;;12.50;94.40;;;;;;6208058;23;20012;-76
2022/06/07 20:54:01;;;;;;;15.40;4.53;;;12.50;94.20;;;;;;6220785;23;20016;-74
2022/06/07 20:56:47;;;;;;;12.73;4.40;;;12.50;94.20;;;;;;6220575;23;20012;-80
2022/06/07 20:59:16;;;;;;;11.82;4.68;;;12.50;94.60;;;;;;6197319;23;20016;-77
2022/06/07 21:01:41;;;;;;;11.57;4.72;;;12.40;94.20;;;;;;6196530;23;20016;-77
2022/06/07 21:04:07;;;;;;;15.73;4.15;;;12.40;94.30;;;;;;6220987;23;20462;-76
2022/06/07 21:06:33;;;;;;;16.65;4.60;;;12.30;94.00;;;;;;6246042;22;20024;-74
2022/06/07 21:08:59;;;;;;;11.23;4.93;;;12.30;94.10;;;;;;6245405;23;20074;-74
2022/06/07 21:11:24;;;;;;;12.10;4.85;;;12.20;94.20;;;;;;6245826;23;20066;-71
2022/06/07 21:13:50;;;;;;;13.60;4.88;;;12.20;94.20;;;;;;6220639;23;20024;-76
2022/06/07 21:16:16;;;;;;;12.10;4.38;;;12.10;94.40;;;;;;6245377;22;20023;-74
2022/06/07 21:18:42;;;;;;;13.05;5.30;;;12.00;94.70;;;;;;6245697;23;20020;-73
2022/06/07 21:21:22;;;;;;;11.55;4.45;;;11.90;94.60;;;;;;6245681;23;20035;-74
2022/06/07 21:28:41;;;;;;;;;;;;;;;;;;;;;
2022/06/07 21:31:10;;;;;;;14.75;4.53;;;12.00;95.30;;;;;;6245539;23;20012;-78
2022/06/07 21:37:43;;;;;;;;;;;;;;;;;;;;;
2022/06/07 21:40:53;;;;;;;14.18;5.30;;;12.10;95.00;;;;;;6241753;23;20012;-72
2022/06/07 21:43:42;;;;;;;11.65;5.05;;;12.10;95.40;;;;;;6245143;23;20012;-72
2022/06/07 21:46:19;;;;;;;13.90;6.65;;;12.10;94.80;;;;;;6196678;22;20091;-70
2022/06/07 21:48:47;;;;;;;12.80;5.10;;;12.00;94.40;;;;;;6219174;23;20024;-72
2022/06/07 21:51:15;;;;;;;12.38;5.90;;;11.90;94.80;;;;;;6197599;23;20024;-70
2022/06/07 21:53:41;;;;;;;12.07;4.80;;;11.80;95.00;;;;;;6220811;23;20016;-70
2022/06/07 21:56:20;;;;;;;16.27;5.68;;;11.80;94.60;;;;;;6245382;22;20076;-70
2022/06/07 21:58:57;;;;;;;9.90;4.90;;;11.70;94.60;;;;;;6245682;23;20087;-69
2022/06/07 22:01:22;;;;;;;12.02;5.32;;;11.60;94.50;;;;;;6245806;23;20020;-70
2022/06/07 22:03:59;;;;;;;10.32;4.78;;;11.60;94.70;;;;;;6196138;23;20025;-70
2022/06/07 22:06:55;;;;;;;13.45;5.35;;;11.50;94.50;;;;;;6245401;22;20012;-71
2022/06/07 22:09:29;;;;;;;12.00;5.70;;;11.40;94.40;;;;;;6203223;23;20045;-71
